Terminal Aerodrome Forecast
Issued by NWS Charleston, WV

Current Version | Previous Version | Graphics & Text | Print | Product List | Glossary On
Versions: 1 2 3 4 5 6 7 8 9 10 11 12 13 14 15 16 17 18 19 20 21 22 23 24 25 26
000
FTUS41 KRLX 240539
TAFCRW
TAF
KCRW 240539Z 2406/2506 00000KT 4SM BR SCT001
     FM240700 00000KT 1/4SM FG VV001
     FM241230 00000KT 2SM BR FEW002
     FM241300 00000KT P6SM FEW250
     FM241700 29005KT P6SM FEW045=

USA.gov is the U.S. government's official web portal to all federal, state and local government web resources and services.